Orbital elements of FENGYUN 1C DEB
| Launched | 9 May 1999 |
| Flight ended | – |
| Launch site | Taiyuan Space Center, PRC |
| Owner | People's Republic of China |
| NORAD ID | 31731 |
| Date fetched |
Epoch osculation |
Inc. [°] |
Ecc. | RA asc node [hr] |
Arg Peri. [°] |
Mean anom [°] |
Mean motion [rev/day] |
Abs. mag |
| Date fetched |
Epoch osculation |
Inc. [°] |
Ecc. | RA asc node [hr] |
Arg Peri. [°] |
Mean anom [°] |
Mean motion [rev/day] |
Abs. mag |
| 2026 May 03 17:57 | 2026 Apr 28 15:19:15 | 99.2949 | 0.00119 | 12.2548 | 64.9474 | 295.2943 | 14.41831 | – |
| 2026 May 02 17:57 | 2026 Apr 28 15:19:15 | 99.2949 | 0.00119 | 12.2548 | 64.9474 | 295.2943 | 14.41831 | – |
| 2026 May 01 17:56 | 2026 Apr 28 15:19:15 | 99.2949 | 0.00119 | 12.2548 | 64.9474 | 295.2943 | 14.41831 | – |
| 2026 Apr 30 17:56 | 2026 Apr 28 15:19:15 | 99.2949 | 0.00119 | 12.2548 | 64.9474 | 295.2943 | 14.41831 | – |
| 2026 Apr 29 17:57 | 2026 Apr 24 03:03:45 | 99.2952 | 0.00122 | 11.9276 | 77.2411 | 295.2943 | 14.41831 | – |
| 2026 Apr 28 17:56 | 2026 Apr 24 03:03:45 | 99.2952 | 0.00122 | 11.9276 | 77.2411 | 295.2943 | 14.41831 | – |
| 2026 Apr 27 17:58 | 2026 Apr 24 03:03:45 | 99.2952 | 0.00122 | 11.9276 | 77.2411 | 295.2943 | 14.41831 | – |
| 2026 Apr 26 17:58 | 2026 Apr 24 03:03:45 | 99.2952 | 0.00122 | 11.9276 | 77.2411 | 295.2943 | 14.41831 | – |
| 2026 Apr 25 17:58 | 2026 Apr 24 03:03:45 | 99.2952 | 0.00122 | 11.9276 | 77.2411 | 295.2943 | 14.41831 | – |
| 2026 Apr 24 17:59 | 2026 Apr 24 03:03:45 | 99.2952 | 0.00122 | 11.9276 | 77.2411 | 295.2943 | 14.41831 | – |
| 2026 Apr 23 17:57 | 2026 Apr 19 03:08:31 | 99.2954 | 0.00125 | 11.5652 | 90.5203 | 295.2943 | 14.41831 | – |
| 2026 Apr 22 17:57 | 2026 Apr 19 03:08:31 | 99.2954 | 0.00125 | 11.5652 | 90.5203 | 295.2943 | 14.41831 | – |
| 2026 Apr 21 17:57 | 2026 Apr 19 03:08:31 | 99.2954 | 0.00125 | 11.5652 | 90.5203 | 295.2943 | 14.41831 | – |
| 2026 Apr 20 17:57 | 2026 Apr 19 03:08:31 | 99.2954 | 0.00125 | 11.5652 | 90.5203 | 295.2943 | 14.41831 | – |
| 2026 Apr 19 17:58 | 2026 Apr 19 03:08:31 | 99.2954 | 0.00125 | 11.5652 | 90.5203 | 295.2943 | 14.41831 | – |
| 2026 Apr 18 17:56 | 2026 Apr 12 02:54:57 | 99.2963 | 0.00130 | 11.0568 | 108.7340 | 295.2943 | 14.41831 | – |
| 2026 Apr 16 17:57 | 2026 Apr 12 02:54:57 | 99.2963 | 0.00130 | 11.0568 | 108.7340 | 295.2943 | 14.41831 | – |
| 2026 Apr 14 17:57 | 2026 Apr 12 02:54:57 | 99.2963 | 0.00130 | 11.0568 | 108.7340 | 295.2943 | 14.41831 | – |
| 2026 Apr 13 17:57 | 2026 Apr 12 02:54:57 | 99.2963 | 0.00130 | 11.0568 | 108.7340 | 295.2943 | 14.41831 | – |
| 2026 Apr 12 17:57 | 2026 Apr 07 02:59:20 | 99.2959 | 0.00132 | 10.6943 | 121.4156 | 295.2943 | 14.41831 | – |
| 2026 Apr 11 17:57 | 2026 Apr 07 02:59:20 | 99.2959 | 0.00132 | 10.6943 | 121.4156 | 295.2943 | 14.41831 | – |
| 2026 Apr 10 17:58 | 2026 Apr 07 02:59:20 | 99.2959 | 0.00132 | 10.6943 | 121.4156 | 295.2943 | 14.41831 | – |
| 2026 Apr 09 18:01 | 2026 Apr 07 02:59:20 | 99.2959 | 0.00132 | 10.6943 | 121.4156 | 295.2943 | 14.41831 | – |
| 2026 Apr 08 17:57 | 2026 Apr 07 02:59:20 | 99.2959 | 0.00132 | 10.6943 | 121.4156 | 295.2943 | 14.41831 | – |
| 2026 Apr 07 17:57 | 2026 Apr 02 03:03:27 | 99.2972 | 0.00134 | 10.3319 | 134.0265 | 295.2943 | 14.41831 | – |
| 2026 Apr 06 17:57 | 2026 Apr 02 03:03:27 | 99.2972 | 0.00134 | 10.3319 | 134.0265 | 295.2943 | 14.41831 | – |